»·PEaware :: SWA3656 KPDX-KSLC

SWA3656 :: KPDX-KSLC

FLIGHT INFORMATION

Flight Status: Arrived
Operator:
Southwest Airlines
More flights by this operator :: More flights under this callsign
Pilot: Dave P. (45)
Aircraft: BOEING 737-700
(B737)
More flights by this aircraft type
Origin: KPDX Portland Intl
United States
Destination: KSLC Salt Lake City Intl
United States
More flights between these airports :: More routes between these airports
Route: WHAMY4 IMB J15 BOI BYI SKEES5
File this flight plan on PilotEdge
Remarks: PBN / A1B1C1D1S1S2 DOF / 180707 REG / N737PM EET / KZLC0029 OPR / SWA PER / C RMK / TCAS SIMBRIEF
Altitude:
(Current/Filed)
37,000ft
Speed:
(Current/Filed)
458kts
Departed: 06-Jul-18 06:13 PM
Arrived: 06-Jul-18 07:39 PM
Distance/Time
Traveled:
546nm/1:26
Distance/Time
To Go:
Arrived

Flight Plot

Page will automatically refresh every two minutes.

Flight plan parsing failed; only flown route is shown


Map Options




Map Legend


Flown Route
Filed Route
Departure Airport
Arrival Airport
Navaid (VOR, NDB)
Fix

Horizontal Profiles

Position Reports

Time Latitude Longitude Heading Altitude Ground
Speed
06-Jul-18 17:45 45.587628 -122.593982 32 38ft 0kts
06-Jul-18 17:46 45.587628 -122.593982 32 38ft 0kts
06-Jul-18 17:47 45.587628 -122.593982 32 38ft 0kts
06-Jul-18 17:48 45.587628 -122.593982 32 38ft 0kts
06-Jul-18 17:49 45.587628 -122.593982 32 38ft 0kts
06-Jul-18 17:50 45.587628 -122.593982 32 38ft 0kts
06-Jul-18 17:51 45.587628 -122.593982 32 38ft 0kts
06-Jul-18 17:52 45.587628 -122.593982 32 38ft 0kts
06-Jul-18 17:53 45.587628 -122.593982 32 38ft 0kts
06-Jul-18 17:54 45.587628 -122.593982 32 38ft 0kts
06-Jul-18 17:55 45.587628 -122.593982 32 38ft 0kts
06-Jul-18 17:56 45.587628 -122.593982 32 38ft 0kts
06-Jul-18 17:57 45.587628 -122.593982 32 38ft 0kts
06-Jul-18 17:58 45.587628 -122.593982 32 38ft 0kts
06-Jul-18 17:59 45.587628 -122.593982 32 38ft 0kts
06-Jul-18 18:00 45.587628 -122.593982 32 38ft 0kts
06-Jul-18 18:01 45.587628 -122.593982 32 38ft 0kts
06-Jul-18 18:02 45.587628 -122.593982 32 38ft 0kts
06-Jul-18 18:03 45.587628 -122.593982 32 38ft 0kts
06-Jul-18 18:04 45.587628 -122.593982 32 38ft 0kts
06-Jul-18 18:05 45.587366 -122.594218 32 38ft 2kts
06-Jul-18 18:06 45.587146 -122.594416 32 38ft 0kts
06-Jul-18 18:07 45.587146 -122.594416 32 38ft 0kts
06-Jul-18 18:08 45.587148 -122.594414 32 38ft 0kts
06-Jul-18 18:09 45.587207 -122.594267 83 38ft 4kts
06-Jul-18 18:10 45.584025 -122.589650 119 38ft 23kts
06-Jul-18 18:11 45.581601 -122.583664 170 38ft 4kts
06-Jul-18 18:12 45.581277 -122.583774 207 38ft 0kts
06-Jul-18 18:13 45.580979 -122.585111 299 38ft 12kts
06-Jul-18 18:14 45.594994 -122.620642 299 1001ft 141kts
06-Jul-18 18:15 45.619577 -122.677513 297 2846ft 210kts
06-Jul-18 18:16 45.653953 -122.762158 296 5840ft 263kts
06-Jul-18 18:17 45.663198 -122.862054 254 9682ft 266kts
06-Jul-18 18:18 45.612339 -122.918164 174 13490ft 278kts
06-Jul-18 18:19 45.534854 -122.861795 129 15697ft 375kts
06-Jul-18 18:20 45.488394 -122.721604 121 19005ft 401kts
06-Jul-18 18:21 45.441887 -122.573534 123 21976ft 418kts
06-Jul-18 18:22 45.393539 -122.419498 123 24470ft 434kts
06-Jul-18 18:23 45.344212 -122.260622 124 26748ft 444kts
06-Jul-18 18:24 45.292790 -122.099057 126 28680ft 452kts
06-Jul-18 18:25 45.241707 -121.933561 123 30368ft 468kts
06-Jul-18 18:26 45.197638 -121.759929 124 32236ft 464kts
06-Jul-18 18:27 45.154178 -121.592096 125 33838ft 462kts
06-Jul-18 18:28 45.110136 -121.421580 125 35245ft 463kts
06-Jul-18 18:29 45.065849 -121.251275 125 36535ft 462kts
06-Jul-18 18:30 45.020890 -121.080409 125 37117ft 465kts
06-Jul-18 18:31 44.975832 -120.910631 125 37122ft 460kts
06-Jul-18 18:32 44.930505 -120.741095 125 37127ft 463kts
06-Jul-18 18:33 44.884805 -120.571368 125 37124ft 464kts
06-Jul-18 18:34 44.838839 -120.401864 125 37126ft 464kts
06-Jul-18 18:35 44.792479 -120.232089 125 37129ft 464kts
06-Jul-18 18:36 44.746172 -120.062560 125 37134ft 464kts
06-Jul-18 18:37 44.706102 -119.917890 124 37140ft 468kts
06-Jul-18 18:38 44.658561 -119.747956 124 37150ft 467kts
06-Jul-18 18:39 44.609767 -119.579475 125 37163ft 465kts
06-Jul-18 18:40 44.560266 -119.411920 125 37177ft 465kts
06-Jul-18 18:41 44.510403 -119.243848 125 37188ft 468kts
06-Jul-18 18:42 44.460758 -119.074970 125 37197ft 469kts
06-Jul-18 18:43 44.410582 -118.906553 125 37199ft 471kts
06-Jul-18 18:44 44.359910 -118.737946 125 37201ft 470kts
06-Jul-18 18:45 44.308884 -118.569387 124 37206ft 473kts
06-Jul-18 18:46 44.257380 -118.400395 124 37207ft 473kts
06-Jul-18 18:47 44.205516 -118.231353 124 37206ft 475kts
06-Jul-18 18:48 44.153382 -118.062536 124 37206ft 474kts
06-Jul-18 18:49 44.101028 -117.894107 124 37204ft 474kts
06-Jul-18 18:50 44.048488 -117.726172 124 37211ft 474kts
06-Jul-18 18:51 43.995640 -117.558338 124 37195ft 473kts
06-Jul-18 18:52 43.942517 -117.390718 124 37182ft 474kts
06-Jul-18 18:53 43.889119 -117.223295 124 37181ft 476kts
06-Jul-18 18:54 43.835288 -117.055571 123 37179ft 476kts
06-Jul-18 18:55 43.781208 -116.888137 123 37179ft 476kts
06-Jul-18 18:56 43.726817 -116.720782 123 37174ft 477kts
06-Jul-18 18:57 43.672247 -116.553230 123 37172ft 478kts
06-Jul-18 18:58 43.617414 -116.386490 123 37173ft 477kts
06-Jul-18 18:59 43.562037 -116.219886 123 37179ft 479kts
06-Jul-18 19:00 43.499920 -116.059673 128 37182ft 472kts
06-Jul-18 19:01 43.435135 -115.901546 127 37188ft 473kts
06-Jul-18 19:02 43.370791 -115.744001 127 37192ft 474kts
06-Jul-18 19:03 43.306490 -115.585882 127 37194ft 474kts
06-Jul-18 19:04 43.241708 -115.428077 127 37199ft 474kts
06-Jul-18 19:05 43.176664 -115.270673 127 37208ft 475kts
06-Jul-18 19:06 43.111195 -115.113134 127 37217ft 470kts
06-Jul-18 19:06 43.059154 -114.988535 127 37224ft 442kts
06-Jul-18 19:08 42.987537 -114.817928 127 37242ft 443kts
06-Jul-18 19:08 42.936310 -114.696498 127 37239ft 444kts
06-Jul-18 19:09 42.874460 -114.550557 126 37235ft 444kts
06-Jul-18 19:10 42.812337 -114.404693 126 37232ft 445kts
06-Jul-18 19:11 42.750123 -114.259330 126 37231ft 445kts
06-Jul-18 19:12 42.687884 -114.113851 126 37227ft 445kts
06-Jul-18 19:13 42.625113 -113.969091 126 37219ft 446kts
06-Jul-18 19:14 42.555216 -113.831724 139 37211ft 437kts
06-Jul-18 19:15 42.468903 -113.716019 141 37210ft 435kts
06-Jul-18 19:16 42.382453 -113.600857 141 37210ft 435kts
06-Jul-18 19:17 42.295938 -113.486028 141 37210ft 436kts
06-Jul-18 19:18 42.212291 -113.375469 141 36510ft 412kts
06-Jul-18 19:19 42.126806 -113.262961 141 33291ft 439kts
06-Jul-18 19:20 42.039925 -113.148105 141 30755ft 436kts
06-Jul-18 19:21 41.953547 -113.035178 140 28037ft 423kts
06-Jul-18 19:22 41.870190 -112.926547 140 25755ft 410kts
06-Jul-18 19:23 41.789983 -112.822298 140 23711ft 396kts
06-Jul-18 19:24 41.711665 -112.721128 140 21687ft 386kts
06-Jul-18 19:25 41.635453 -112.622711 139 19773ft 376kts
06-Jul-18 19:26 41.561016 -112.527184 139 17942ft 366kts
06-Jul-18 19:27 41.483133 -112.443028 144 16084ft 354kts
06-Jul-18 19:28 41.416144 -112.348121 134 14522ft 353kts
06-Jul-18 19:29 41.350579 -112.250848 135 13618ft 352kts
06-Jul-18 19:30 41.282419 -112.159069 144 12703ft 342kts
06-Jul-18 19:31 41.213858 -112.087732 145 11846ft 280kts
06-Jul-18 19:32 41.158186 -112.030711 145 11143ft 229kts
06-Jul-18 19:33 41.099017 -112.010730 177 9863ft 224kts
06-Jul-18 19:34 41.037634 -112.003678 176 8673ft 219kts
06-Jul-18 19:35 40.977204 -111.996623 176 7513ft 216kts
06-Jul-18 19:36 40.920095 -111.989961 174 6418ft 201kts
06-Jul-18 19:37 40.866946 -111.983770 174 5383ft 173kts
06-Jul-18 19:38 40.823272 -111.978688 174 4563ft 151kts
06-Jul-18 19:39 40.792161 -111.975345 189 4235ft 23kts
06-Jul-18 19:40 40.790472 -111.976364 210 4235ft 0kts
06-Jul-18 19:42 40.788598 -111.976984 174 4235ft 9kts
06-Jul-18 19:43 40.787827 -111.977863 264 4235ft 0kts
06-Jul-18 19:44 40.787827 -111.977863 264 4235ft 0kts
06-Jul-18 19:45 40.787827 -111.977863 264 4235ft 0kts
06-Jul-18 19:46 40.787827 -111.977863 264 4235ft 0kts
06-Jul-18 19:47 40.787827 -111.977863 264 4235ft 0kts
06-Jul-18 19:48 40.787827 -111.977863 264 4235ft 0kts
06-Jul-18 19:49 40.787827 -111.977863 264 4235ft 0kts
06-Jul-18 19:50 40.787827 -111.977863 264 4235ft 0kts
06-Jul-18 19:51 40.787827 -111.977863 264 4235ft 0kts
06-Jul-18 19:52 40.787827 -111.977863 264 4235ft 0kts
06-Jul-18 19:53 40.787827 -111.977863 264 4235ft 0kts
06-Jul-18 19:54 40.787827 -111.977863 264 4235ft 0kts

Navigation Log

Ident Type
Flight plan parsing failed, navigation log unavailable